Time;durP1;ratioP1;P1;durP2;ratioP2;P2;SDS_P1;SDS_P2;PMS_P1;PMS_P2;Temp;Humidity;BMP_temperature;BMP_pressure;BME280_temperature;BME280_humidity;BME280_pressure;Samples;Min_cycle;Max_cycle;Signal;HPM_P1;HPM_P2
2022/03/05 00:01:01;;;;;;;3.97;2.33;;;26.10;83.40;;;;;;5167340;22;20023;-70
2022/03/05 00:03:25;;;;;;;4.93;2.42;;;26.10;83.40;;;;;;5159063;22;20073;-65
2022/03/05 00:05:48;;;;;;;6.03;2.50;;;26.10;83.40;;;;;;5163777;22;20511;-71
2022/03/05 00:08:11;;;;;;;5.50;2.58;;;26.10;83.40;;;;;;5168366;22;20153;-67
2022/03/05 00:10:33;;;;;;;5.13;2.10;;;26.20;83.40;;;;;;5158300;22;20110;-67
2022/03/05 00:12:56;;;;;;;4.10;2.50;;;26.20;83.40;;;;;;5162702;22;20015;-66
2022/03/05 00:15:20;;;;;;;6.88;2.10;;;26.20;83.30;;;;;;5138286;22;20012;-68
2022/03/05 00:17:42;;;;;;;;;;;26.20;83.30;;;;;;5131944;22;20018;-68
2022/03/05 00:20:06;;;;;;;4.63;2.30;;;26.20;83.30;;;;;;5165640;22;20214;-64
2022/03/05 00:22:28;;;;;;;;;;;26.20;83.30;;;;;;5166105;22;20026;-68
2022/03/05 00:24:50;;;;;;;5.97;2.22;;;26.20;83.30;;;;;;5133835;22;19914;-70
2022/03/05 00:27:13;;;;;;;3.70;2.15;;;26.30;83.30;;;;;;5166615;22;20291;-67
2022/03/05 00:29:36;;;;;;;5.20;2.53;;;26.30;83.20;;;;;;5168700;22;20012;-71
2022/03/05 00:31:58;;;;;;;8.23;2.50;;;26.30;83.30;;;;;;5161624;22;20193;-68
2022/03/05 00:34:20;;;;;;;3.50;1.95;;;26.30;83.40;;;;;;5162476;22;20007;-65
2022/03/05 00:36:43;;;;;;;3.80;2.33;;;26.30;83.30;;;;;;5166722;22;20401;-69
2022/03/05 00:39:06;;;;;;;4.82;2.50;;;26.40;83.40;;;;;;5165864;22;20015;-69
2022/03/05 00:41:29;;;;;;;5.47;3.25;;;26.40;83.00;;;;;;5166419;22;20652;-68
2022/03/05 00:43:51;;;;;;;5.55;3.85;;;26.40;82.60;;;;;;5171300;22;20046;-68
2022/03/05 00:46:13;;;;;;;8.07;4.60;;;26.30;82.10;;;;;;5165782;22;20038;-74
2022/03/05 00:48:36;;;;;;;7.60;4.57;;;26.30;82.00;;;;;;5165641;22;20027;-68
2022/03/05 00:50:58;;;;;;;6.53;4.13;;;26.30;82.20;;;;;;5167973;22;20027;-70
2022/03/05 00:53:21;;;;;;;7.47;4.13;;;26.30;82.60;;;;;;5157317;22;20015;-71
2022/03/05 00:55:44;;;;;;;7.28;3.90;;;26.30;82.90;;;;;;5127139;22;20043;-77
2022/03/05 00:58:06;;;;;;;6.47;3.70;;;26.40;82.90;;;;;;5160938;22;20061;-69
2022/03/05 01:00:29;;;;;;;6.50;4.20;;;26.40;82.90;;;;;;5156474;22;20031;-72
2022/03/05 01:02:52;;;;;;;7.65;3.67;;;26.50;83.00;;;;;;5155028;22;20119;-69
2022/03/05 01:05:14;;;;;;;6.35;3.30;;;26.50;83.00;;;;;;5154204;22;20135;-73
2022/03/05 01:07:37;;;;;;;5.18;2.97;;;26.50;82.90;;;;;;5159467;22;20012;-74
2022/03/05 01:10:00;;;;;;;6.78;3.47;;;26.50;82.80;;;;;;5154022;22;20031;-69
2022/03/05 01:12:22;;;;;;;8.38;3.85;;;26.60;82.80;;;;;;5160020;22;20224;-68
2022/03/05 01:14:45;;;;;;;8.60;5.22;;;26.60;82.40;;;;;;5159204;22;20020;-69
2022/03/05 01:17:07;;;;;;;10.18;5.53;;;26.60;82.20;;;;;;5157909;22;20015;-70
2022/03/05 01:19:30;;;;;;;9.88;5.68;;;26.60;82.10;;;;;;5152893;22;20153;-69
2022/03/05 01:21:54;;;;;;;8.48;5.05;;;26.60;82.10;;;;;;5161318;22;20117;-70
2022/03/05 01:24:17;;;;;;;7.50;5.30;;;26.60;82.00;;;;;;5156550;22;20026;-70
2022/03/05 01:26:39;;;;;;;7.70;5.37;;;26.60;82.00;;;;;;5158126;22;20753;-72
2022/03/05 01:29:02;;;;;;;11.48;5.05;;;26.60;82.00;;;;;;5158708;22;20253;-74
2022/03/05 01:31:25;;;;;;;7.57;4.63;;;26.60;82.10;;;;;;5158590;22;20098;-76
2022/03/05 01:33:47;;;;;;;9.55;4.93;;;26.60;82.20;;;;;;5127674;22;20016;-72
2022/03/05 01:36:10;;;;;;;10.85;4.45;;;26.70;82.50;;;;;;5165309;22;20106;-77
2022/03/05 01:38:32;;;;;;;8.57;4.28;;;26.70;82.50;;;;;;5152087;22;20023;-70
2022/03/05 01:40:55;;;;;;;7.18;4.25;;;26.70;82.60;;;;;;5157489;22;20110;-73
2022/03/05 01:43:17;;;;;;;9.02;4.07;;;26.80;82.60;;;;;;5163494;22;20019;-72
2022/03/05 01:45:40;;;;;;;9.07;3.90;;;26.80;82.80;;;;;;5156725;22;20531;-70
2022/03/05 01:48:02;;;;;;;5.65;3.45;;;26.80;82.70;;;;;;5150421;22;20015;-69
2022/03/05 01:50:25;;;;;;;7.33;3.37;;;26.80;82.70;;;;;;5164718;22;20549;-70
2022/03/05 01:52:48;;;;;;;5.18;3.25;;;26.80;82.90;;;;;;5159201;22;20146;-72
2022/03/05 01:55:13;;;;;;;5.85;3.28;;;26.90;83.20;;;;;;5158251;22;20560;-72
2022/03/05 01:57:36;;;;;;;5.82;3.50;;;26.90;82.70;;;;;;5163728;22;20012;-64
2022/03/05 01:59:58;;;;;;;6.85;4.40;;;27.00;82.50;;;;;;5126559;22;20055;-65
2022/03/05 02:02:21;;;;;;;6.22;3.83;;;27.00;83.80;;;;;;5126596;22;20012;-64
2022/03/05 02:04:44;;;;;;;5.47;3.20;;;27.00;83.70;;;;;;5162089;22;20461;-66
2022/03/05 02:07:06;;;;;;;6.60;3.05;;;27.10;83.50;;;;;;5157568;22;20094;-65
2022/03/05 02:09:29;;;;;;;5.60;3.20;;;27.10;83.30;;;;;;5154900;22;20122;-68
2022/03/05 02:11:51;;;;;;;5.93;3.00;;;27.10;83.20;;;;;;5163366;22;20626;-66
2022/03/05 02:14:18;;;;;;;5.43;3.08;;;27.20;83.10;;;;;;5159273;22;20019;-66
2022/03/05 02:16:40;;;;;;;5.25;3.00;;;27.20;83.00;;;;;;5156998;22;20862;-67
2022/03/05 02:19:05;;;;;;;4.65;2.53;;;27.30;83.50;;;;;;5163861;22;20012;-70
2022/03/05 02:21:28;;;;;;;4.00;2.45;;;27.30;83.50;;;;;;5129801;22;20100;-69
2022/03/05 02:23:51;;;;;;;4.07;2.67;;;27.40;83.40;;;;;;5162401;22;21123;-76
2022/03/05 02:26:13;;;;;;;4.47;2.63;;;27.40;83.30;;;;;;5172646;22;20069;-71
2022/03/05 02:28:37;;;;;;;3.50;2.50;;;27.40;82.80;;;;;;5164020;22;20099;-72
2022/03/05 02:31:00;;;;;;;3.70;2.35;;;27.40;82.80;;;;;;5164208;22;20533;-78
2022/03/05 02:33:23;;;;;;;4.43;2.70;;;27.40;82.90;;;;;;5168738;22;20110;-78
2022/03/05 02:35:46;;;;;;;4.60;2.73;;;27.40;83.10;;;;;;5159760;22;20996;-76
2022/03/05 02:38:08;;;;;;;4.30;2.75;;;27.40;83.00;;;;;;5160992;22;20914;-76
2022/03/05 02:40:31;;;;;;;5.00;2.78;;;27.40;82.80;;;;;;5134949;22;20241;-68
2022/03/05 02:42:53;;;;;;;4.10;2.70;;;27.40;82.60;;;;;;5159518;22;20018;-72
2022/03/05 02:45:16;;;;;;;3.83;2.35;;;27.40;82.80;;;;;;5129305;22;20308;-71
2022/03/05 02:47:38;;;;;;;4.25;2.78;;;27.40;82.90;;;;;;5164681;22;20106;-73
2022/03/05 02:50:01;;;;;;;4.93;2.65;;;27.40;82.90;;;;;;5127991;22;20251;-70
2022/03/05 02:52:23;;;;;;;2.97;2.20;;;27.40;83.00;;;;;;5125984;22;20393;-71
2022/03/05 02:54:45;;;;;;;4.43;2.53;;;27.50;82.90;;;;;;5162282;22;20016;-68
2022/03/05 02:57:08;;;;;;;3.88;2.53;;;27.50;83.10;;;;;;5157256;22;20022;-71
2022/03/05 02:59:31;;;;;;;3.80;2.50;;;27.50;83.10;;;;;;5160376;22;20031;-69
2022/03/05 03:01:53;;;;;;;3.13;2.17;;;27.50;82.90;;;;;;5165204;22;20085;-68
2022/03/05 03:04:16;;;;;;;3.67;2.42;;;27.50;82.90;;;;;;5160907;22;20078;-71
2022/03/05 03:06:38;;;;;;;4.10;2.40;;;27.50;82.80;;;;;;5161746;22;20039;-70
2022/03/05 03:09:01;;;;;;;6.05;2.78;;;27.60;82.90;;;;;;5166293;22;20024;-71
2022/03/05 03:11:24;;;;;;;14.47;3.07;;;27.60;82.90;;;;;;5154359;22;20602;-71
2022/03/05 03:13:46;;;;;;;9.32;3.50;;;27.60;82.90;;;;;;5165382;22;20126;-73
2022/03/05 03:16:09;;;;;;;12.63;3.17;;;27.60;82.80;;;;;;5166056;22;20637;-74
2022/03/05 03:18:31;;;;;;;7.55;2.55;;;27.70;82.70;;;;;;5168589;22;20340;-77
2022/03/05 03:20:54;;;;;;;6.03;3.00;;;27.70;82.50;;;;;;5165240;22;20094;-77
2022/03/05 03:23:16;;;;;;;7.60;2.88;;;27.70;82.20;;;;;;5165515;22;20540;-75
2022/03/05 03:25:39;;;;;;;7.95;3.03;;;27.70;81.90;;;;;;5167780;22;20524;-78
2022/03/05 03:28:01;;;;;;;6.32;2.85;;;27.80;81.80;;;;;;5163861;22;20098;-78
2022/03/05 03:30:24;;;;;;;7.18;2.72;;;27.80;81.60;;;;;;5163231;22;20953;-78
2022/03/05 03:32:47;;;;;;;5.38;2.50;;;27.80;81.40;;;;;;5170107;22;20510;-80
2022/03/05 03:35:11;;;;;;;4.28;2.50;;;27.80;81.20;;;;;;5166752;22;20035;-73
2022/03/05 03:37:34;;;;;;;7.28;2.97;;;27.90;81.10;;;;;;5165021;22;20773;-75
2022/03/05 03:39:58;;;;;;;4.18;2.47;;;27.90;81.00;;;;;;5167461;22;20042;-75
2022/03/05 03:42:20;;;;;;;4.13;2.20;;;27.90;80.80;;;;;;5159034;22;20499;-72
2022/03/05 03:44:45;;;;;;;4.85;2.55;;;27.90;80.60;;;;;;5161140;22;20011;-76
2022/03/05 03:47:12;;;;;;;3.58;2.13;;;28.00;80.60;;;;;;5168400;22;20114;-73
2022/03/05 03:49:34;;;;;;;4.03;2.38;;;28.00;80.40;;;;;;5161379;22;20749;-73
2022/03/05 03:51:57;;;;;;;4.05;2.70;;;28.00;80.90;;;;;;5165983;22;20020;-72
2022/03/05 03:54:19;;;;;;;4.95;2.53;;;28.00;80.20;;;;;;5165238;22;20114;-77
2022/03/05 03:56:42;;;;;;;2.85;2.08;;;28.10;80.10;;;;;;5156756;22;20092;-72
2022/03/05 03:59:04;;;;;;;3.92;2.60;;;28.10;80.00;;;;;;5163458;22;20019;-72
2022/03/05 04:01:27;;;;;;;2.95;2.15;;;28.10;79.90;;;;;;5164454;22;20460;-69
2022/03/05 04:03:49;;;;;;;3.50;2.28;;;28.10;80.20;;;;;;5159713;22;20031;-69
2022/03/05 04:06:12;;;;;;;4.82;2.75;;;28.10;79.70;;;;;;5160796;22;20526;-69
2022/03/05 04:08:43;;;;;;;3.40;2.22;;;28.10;79.60;;;;;;5132348;22;20070;-69
2022/03/05 04:11:07;;;;;;;3.47;2.75;;;28.10;79.50;;;;;;5157261;22;20074;-69
2022/03/05 04:13:30;;;;;;;3.28;2.30;;;28.10;79.50;;;;;;5165764;22;20561;-71
2022/03/05 04:15:52;;;;;;;3.28;2.50;;;28.20;79.40;;;;;;5158404;22;20019;-69
2022/03/05 04:18:15;;;;;;;4.53;2.20;;;28.20;79.40;;;;;;5156047;22;20035;-71
2022/03/05 04:20:37;;;;;;;3.28;2.28;;;28.20;79.20;;;;;;5163684;22;20471;-69
2022/03/05 04:23:00;;;;;;;3.60;2.38;;;28.30;79.20;;;;;;5160200;22;20058;-70
2022/03/05 04:25:22;;;;;;;4.25;2.50;;;28.30;79.10;;;;;;5126580;22;20020;-71
2022/03/05 04:27:45;;;;;;;4.05;2.15;;;28.30;79.00;;;;;;5166337;22;20018;-71
2022/03/05 04:30:09;;;;;;;4.15;2.40;;;28.30;78.90;;;;;;5158591;22;20133;-71
2022/03/05 04:32:31;;;;;;;3.83;2.20;;;28.30;78.90;;;;;;5158256;22;20524;-71
2022/03/05 04:35:02;;;;;;;3.28;2.20;;;28.30;78.70;;;;;;5164253;22;20019;-71
2022/03/05 04:37:25;;;;;;;3.30;1.92;;;28.30;78.70;;;;;;5159006;22;20015;-70
2022/03/05 04:39:47;;;;;;;2.80;1.95;;;28.30;78.60;;;;;;5163024;22;20526;-70
2022/03/05 04:42:10;;;;;;;3.45;2.10;;;28.40;78.50;;;;;;5157787;22;20023;-69
2022/03/05 04:44:32;;;;;;;3.13;1.90;;;28.50;78.60;;;;;;5156818;22;20488;-69
2022/03/05 04:46:55;;;;;;;2.78;1.70;;;28.50;78.30;;;;;;5159286;22;20020;-70
2022/03/05 04:49:17;;;;;;;3.58;2.13;;;28.60;78.30;;;;;;5161745;22;20828;-70
2022/03/05 04:51:40;;;;;;;2.60;1.80;;;28.60;78.20;;;;;;5154196;22;20026;-70
2022/03/05 04:54:03;;;;;;;2.75;2.08;;;28.70;78.10;;;;;;5125947;22;20023;-70
2022/03/05 04:56:26;;;;;;;3.33;1.90;;;28.70;78.00;;;;;;5162027;22;20016;-70
2022/03/05 04:58:48;;;;;;;2.37;1.80;;;28.70;78.00;;;;;;5155232;22;20050;-68
2022/03/05 05:01:10;;;;;;;3.08;1.95;;;28.80;78.00;;;;;;5157926;22;20031;-70
2022/03/05 05:03:33;;;;;;;2.90;1.92;;;28.70;77.70;;;;;;5163910;22;20019;-72
2022/03/05 05:05:56;;;;;;;2.77;1.80;;;28.80;77.70;;;;;;5157468;22;20023;-71
2022/03/05 05:08:19;;;;;;;2.58;1.83;;;28.80;78.00;;;;;;5128325;22;20257;-71
2022/03/05 05:10:41;;;;;;;3.45;2.20;;;28.80;77.60;;;;;;5163858;22;20023;-71
2022/03/05 05:13:04;;;;;;;2.85;1.70;;;28.80;77.50;;;;;;5158671;22;20455;-69
2022/03/05 05:15:26;;;;;;;3.40;2.05;;;28.90;77.60;;;;;;5159339;22;20657;-70
2022/03/05 05:17:49;;;;;;;3.28;1.98;;;28.90;77.40;;;;;;5164983;22;20015;-70
2022/03/05 05:20:12;;;;;;;2.85;1.63;;;28.90;77.30;;;;;;5159054;22;20029;-69
2022/03/05 05:22:35;;;;;;;2.60;1.75;;;29.00;77.30;;;;;;5159122;22;20025;-68
2022/03/05 05:24:57;;;;;;;2.53;1.50;;;29.10;77.20;;;;;;5165052;22;20023;-69
2022/03/05 05:27:20;;;;;;;2.53;1.65;;;29.10;77.00;;;;;;5160079;22;20038;-71
2022/03/05 05:29:42;;;;;;;2.25;1.58;;;29.20;76.90;;;;;;5160161;22;20751;-70
2022/03/05 05:32:05;;;;;;;2.50;1.73;;;29.20;76.80;;;;;;5162281;22;20077;-68
2022/03/05 05:34:27;;;;;;;2.33;1.70;;;29.30;76.60;;;;;;5159178;22;20880;-70
2022/03/05 05:36:50;;;;;;;2.28;1.63;;;29.40;76.50;;;;;;5158838;22;20012;-71
2022/03/05 05:39:13;;;;;;;2.97;1.77;;;29.40;76.40;;;;;;5132041;22;20008;-72
2022/03/05 05:41:37;;;;;;;2.05;1.50;;;29.40;76.20;;;;;;5160228;22;20181;-71
2022/03/05 05:44:03;;;;;;;2.47;1.65;;;29.50;76.30;;;;;;5159423;22;20019;-72
2022/03/05 05:46:26;;;;;;;1.45;1.25;;;29.50;76.10;;;;;;5164090;22;20023;-72
2022/03/05 05:48:48;;;;;;;1.83;1.20;;;29.60;76.00;;;;;;5159696;22;20042;-72
2022/03/05 05:51:11;;;;;;;1.83;1.35;;;29.60;75.90;;;;;;5159805;22;20938;-71
2022/03/05 05:53:33;;;;;;;2.42;1.55;;;29.70;75.80;;;;;;5165855;22;20340;-71
2022/03/05 05:55:56;;;;;;;2.30;1.50;;;29.80;75.70;;;;;;5159412;22;20069;-74
2022/03/05 05:58:18;;;;;;;2.08;1.25;;;29.90;75.60;;;;;;5160817;22;20329;-68
2022/03/05 06:00:41;;;;;;;2.13;1.40;;;29.90;75.30;;;;;;5165023;22;20117;-71
2022/03/05 06:03:03;;;;;;;2.08;1.35;;;30.00;75.20;;;;;;5129467;22;20026;-71
2022/03/05 06:05:26;;;;;;;3.28;1.55;;;30.00;75.10;;;;;;5159467;22;20027;-70
2022/03/05 06:07:48;;;;;;;1.30;1.10;;;30.10;75.00;;;;;;5162708;22;20047;-68
2022/03/05 06:10:11;;;;;;;1.88;1.00;;;30.10;74.80;;;;;;5162239;22;20035;-71
2022/03/05 06:12:33;;;;;;;1.20;1.05;;;30.20;74.70;;;;;;5159243;22;20015;-70
2022/03/05 06:14:56;;;;;;;2.03;1.20;;;30.20;74.60;;;;;;5160723;22;20050;-72
2022/03/05 06:17:18;;;;;;;2.27;1.40;;;30.20;74.60;;;;;;5132160;22;20728;-73
2022/03/05 06:19:42;;;;;;;2.15;1.27;;;30.20;74.50;;;;;;5158362;22;20118;-71
2022/03/05 06:22:05;;;;;;;1.95;1.40;;;30.20;74.50;;;;;;5160619;22;20019;-72
2022/03/05 06:24:28;;;;;;;1.93;1.37;;;30.20;74.50;;;;;;5165147;22;20046;-72
2022/03/05 06:26:51;;;;;;;2.65;1.02;;;30.10;74.60;;;;;;5159817;22;20304;-70
2022/03/05 06:29:13;;;;;;;1.80;1.30;;;30.10;74.50;;;;;;5160905;22;20012;-69
2022/03/05 06:31:36;;;;;;;1.63;1.10;;;30.10;74.50;;;;;;5164951;22;20023;-69
2022/03/05 06:33:58;;;;;;;2.28;1.52;;;30.10;74.50;;;;;;5160129;22;20015;-70
2022/03/05 06:36:20;;;;;;;2.08;1.17;;;30.10;74.60;;;;;;5159121;22;20476;-70
2022/03/05 06:38:43;;;;;;;1.58;1.27;;;30.10;74.60;;;;;;5165210;22;20095;-70
2022/03/05 06:41:05;;;;;;;2.05;1.13;;;30.00;74.60;;;;;;5159301;22;20417;-68
2022/03/05 06:43:28;;;;;;;2.35;1.15;;;30.00;74.60;;;;;;5160008;22;20062;-69
2022/03/05 06:45:51;;;;;;;1.30;1.10;;;30.00;74.60;;;;;;5167956;22;20015;-71
2022/03/05 06:48:13;;;;;;;2.22;1.20;;;30.00;74.60;;;;;;5161319;22;20113;-71
2022/03/05 06:50:39;;;;;;;2.28;1.15;;;30.00;74.60;;;;;;5151729;22;20060;-71
2022/03/05 06:53:01;;;;;;;2.63;1.50;;;29.90;74.60;;;;;;5165142;22;20023;-72
2022/03/05 06:55:24;;;;;;;1.52;1.00;;;29.90;74.60;;;;;;5160612;22;20026;-70
2022/03/05 06:57:46;;;;;;;2.78;1.35;;;29.90;74.70;;;;;;5160438;22;20022;-70
2022/03/05 07:00:10;;;;;;;1.23;1.00;;;29.90;75.30;;;;;;5167498;22;20486;-72
2022/03/05 07:02:33;;;;;;;2.20;1.25;;;29.90;74.70;;;;;;5160195;22;20027;-68
2022/03/05 07:04:55;;;;;;;1.40;0.95;;;29.90;74.80;;;;;;5157999;22;20047;-69
2022/03/05 07:07:18;;;;;;;1.77;1.35;;;29.80;74.70;;;;;;5165854;22;20090;-68
2022/03/05 07:09:40;;;;;;;2.63;1.33;;;29.80;74.70;;;;;;5160976;22;20623;-71
2022/03/05 07:12:03;;;;;;;2.28;1.40;;;29.80;74.80;;;;;;5159307;22;20023;-70
2022/03/05 07:14:25;;;;;;;1.63;1.30;;;29.80;74.80;;;;;;5164743;22;20455;-70
2022/03/05 07:16:48;;;;;;;2.08;1.30;;;29.80;74.90;;;;;;5153879;22;20946;-70
2022/03/05 07:19:10;;;;;;;2.00;1.50;;;29.70;74.80;;;;;;5160959;22;20012;-69
2022/03/05 07:21:33;;;;;;;3.13;1.30;;;29.70;74.90;;;;;;5163628;22;20899;-70
2022/03/05 07:23:56;;;;;;;2.72;1.45;;;29.70;74.90;;;;;;5159049;22;20027;-70
2022/03/05 07:26:19;;;;;;;3.08;1.58;;;29.70;75.00;;;;;;5158296;22;20011;-68
2022/03/05 07:28:42;;;;;;;3.30;1.35;;;29.70;75.00;;;;;;5164084;22;20020;-68
2022/03/05 07:31:05;;;;;;;1.42;1.15;;;29.60;75.00;;;;;;5162998;22;20454;-68
2022/03/05 07:33:27;;;;;;;3.33;1.63;;;29.60;75.00;;;;;;5159895;22;20800;-67
2022/03/05 07:35:50;;;;;;;2.67;1.45;;;29.60;75.10;;;;;;5163814;22;21082;-68
2022/03/05 07:38:12;;;;;;;2.35;1.38;;;29.60;75.10;;;;;;5162178;22;20132;-68
2022/03/05 07:40:35;;;;;;;4.78;1.67;;;29.60;75.10;;;;;;5129355;22;20104;-68
2022/03/05 07:42:57;;;;;;;3.13;1.80;;;29.60;75.10;;;;;;5161700;22;20015;-69
2022/03/05 07:45:20;;;;;;;4.10;2.00;;;29.50;75.00;;;;;;5133830;22;20027;-69
2022/03/05 07:47:43;;;;;;;2.80;1.63;;;29.50;75.10;;;;;;5157986;22;20130;-70
2022/03/05 07:50:06;;;;;;;3.35;1.70;;;29.50;75.20;;;;;;5159672;22;20784;-67
2022/03/05 07:52:28;;;;;;;2.60;1.50;;;29.50;75.20;;;;;;5165686;22;20019;-68
2022/03/05 07:54:51;;;;;;;4.25;1.67;;;29.50;75.20;;;;;;5130689;22;20051;-67
2022/03/05 07:57:14;;;;;;;1.90;1.30;;;29.50;75.20;;;;;;5160327;22;20015;-69
2022/03/05 07:59:36;;;;;;;3.40;1.70;;;29.40;75.20;;;;;;5163491;22;20073;-68
2022/03/05 08:01:58;;;;;;;2.08;1.50;;;29.40;75.60;;;;;;5156548;22;20053;-68
2022/03/05 08:04:21;;;;;;;2.10;1.38;;;29.40;75.30;;;;;;5158887;22;20105;-67
2022/03/05 08:06:44;;;;;;;2.70;1.40;;;29.40;75.30;;;;;;5162805;22;20031;-68
2022/03/05 08:09:06;;;;;;;2.63;1.35;;;29.40;75.30;;;;;;5156041;22;20021;-69
2022/03/05 08:11:29;;;;;;;3.15;1.70;;;29.30;75.90;;;;;;5156160;22;20054;-67
2022/03/05 08:13:51;;;;;;;2.03;1.30;;;29.30;75.30;;;;;;5163206;22;20378;-68
2022/03/05 08:16:14;;;;;;;2.53;1.27;;;29.30;75.40;;;;;;5157135;22;20015;-68
2022/03/05 08:18:36;;;;;;;2.15;1.25;;;29.30;75.40;;;;;;5155404;22;20487;-68
2022/03/05 08:20:59;;;;;;;3.25;1.65;;;29.30;75.50;;;;;;5160723;22;20011;-68
2022/03/05 08:23:21;;;;;;;2.10;1.20;;;29.30;75.50;;;;;;5126470;22;20070;-68
2022/03/05 08:25:44;;;;;;;2.63;1.33;;;29.30;75.50;;;;;;5158225;22;20545;-68
2022/03/05 08:28:07;;;;;;;5.07;1.58;;;29.30;75.60;;;;;;5161759;22;20089;-67
2022/03/05 08:30:29;;;;;;;3.55;1.60;;;29.20;75.50;;;;;;5161958;22;20027;-69
2022/03/05 08:32:52;;;;;;;2.63;1.40;;;29.20;75.50;;;;;;5154868;22;20045;-67
2022/03/05 08:35:15;;;;;;;3.03;1.40;;;29.20;75.60;;;;;;5156581;22;20129;-69
2022/03/05 08:37:38;;;;;;;2.72;1.50;;;29.20;75.60;;;;;;5161005;22;20450;-69
2022/03/05 08:40:01;;;;;;;2.25;1.13;;;29.20;75.70;;;;;;5159200;22;20019;-68
2022/03/05 08:42:23;;;;;;;2.85;1.15;;;29.20;75.60;;;;;;5159504;22;20130;-69
2022/03/05 08:44:46;;;;;;;1.98;1.15;;;29.20;75.70;;;;;;5133107;22;20027;-70
2022/03/05 08:47:08;;;;;;;1.13;0.98;;;29.20;75.70;;;;;;5157827;22;20015;-67
2022/03/05 08:49:31;;;;;;;2.53;1.20;;;29.10;75.70;;;;;;5159646;22;20717;-68
2022/03/05 08:51:53;;;;;;;2.38;1.30;;;29.20;75.80;;;;;;5162119;22;20394;-68
2022/03/05 08:54:17;;;;;;;2.40;1.35;;;29.10;75.70;;;;;;5155747;22;20372;-68
2022/03/05 08:56:39;;;;;;;1.83;1.10;;;29.10;75.90;;;;;;5148805;22;20619;-67
2022/03/05 08:59:02;;;;;;;2.30;1.20;;;29.10;75.70;;;;;;5162408;22;20506;-68
2022/03/05 09:01:24;;;;;;;2.70;1.10;;;29.10;75.80;;;;;;5154485;22;20050;-67
2022/03/05 09:03:47;;;;;;;2.67;1.05;;;29.10;75.80;;;;;;5124500;22;20829;-67
2022/03/05 09:06:10;;;;;;;1.63;1.10;;;29.10;75.80;;;;;;5162378;22;20605;-66
2022/03/05 09:08:33;;;;;;;2.38;1.10;;;29.10;75.90;;;;;;5156652;22;20097;-67
2022/03/05 09:10:55;;;;;;;1.70;0.97;;;29.10;75.90;;;;;;5156368;22;20069;-67
2022/03/05 09:13:17;;;;;;;3.65;1.20;;;29.00;75.90;;;;;;5161111;22;20819;-67
2022/03/05 09:15:40;;;;;;;1.17;0.88;;;29.00;75.90;;;;;;5157502;22;20369;-67
2022/03/05 09:18:02;;;;;;;1.67;1.25;;;29.00;75.90;;;;;;5157443;22;20020;-67
2022/03/05 09:20:25;;;;;;;2.50;1.08;;;29.00;75.90;;;;;;5162633;22;20046;-67
2022/03/05 09:22:48;;;;;;;1.60;0.95;;;29.00;76.00;;;;;;5158359;22;20905;-68
2022/03/05 09:25:11;;;;;;;1.87;1.10;;;29.00;76.00;;;;;;5157240;22;20019;-68
2022/03/05 09:27:34;;;;;;;1.60;0.80;;;29.00;76.00;;;;;;5131933;22;20793;-67
2022/03/05 09:29:58;;;;;;;1.13;0.80;;;28.90;76.00;;;;;;5157485;22;20016;-67
2022/03/05 09:32:20;;;;;;;1.52;0.90;;;28.90;76.00;;;;;;5155207;22;20019;-67
2022/03/05 09:34:43;;;;;;;1.67;0.90;;;28.90;76.00;;;;;;5161121;22;20546;-67
2022/03/05 09:37:05;;;;;;;1.43;0.80;;;28.90;76.00;;;;;;5156617;22;20460;-68
2022/03/05 09:39:28;;;;;;;1.17;0.75;;;28.90;76.10;;;;;;5156189;22;20683;-67
2022/03/05 09:41:51;;;;;;;1.83;1.02;;;28.90;76.70;;;;;;5160448;22;20140;-68
2022/03/05 09:44:14;;;;;;;2.63;1.30;;;28.90;76.10;;;;;;5156208;22;20047;-67
2022/03/05 09:46:36;;;;;;;1.17;0.80;;;28.80;76.70;;;;;;5156136;22;20011;-67
2022/03/05 09:48:59;;;;;;;1.27;0.82;;;28.90;75.60;;;;;;5160399;22;20510;-68
2022/03/05 09:51:23;;;;;;;1.45;0.90;;;28.80;76.10;;;;;;5159165;22;20546;-67
2022/03/05 09:53:45;;;;;;;1.27;0.90;;;28.80;76.20;;;;;;5156536;22;20019;-67
2022/03/05 09:56:08;;;;;;;1.80;0.90;;;28.80;76.10;;;;;;5159690;22;20240;-66
2022/03/05 09:58:30;;;;;;;1.50;1.00;;;28.80;76.20;;;;;;5159544;22;20026;-68
2022/03/05 10:00:53;;;;;;;2.60;0.90;;;28.80;76.20;;;;;;5153784;22;20803;-68
2022/03/05 10:03:15;;;;;;;1.90;0.68;;;28.80;76.20;;;;;;5157820;22;20015;-66
2022/03/05 10:05:38;;;;;;;1.90;1.20;;;28.80;76.20;;;;;;5159088;22;20918;-68
2022/03/05 10:30:00;;;;;;;5.13;1.65;;;28.70;76.60;;;;;;5092634;22;20369;-64
2022/03/05 10:32:23;;;;;;;2.55;1.42;;;28.70;76.50;;;;;;5130717;22;20130;-64
2022/03/05 10:34:52;;;;;;;5.07;1.60;;;28.70;76.90;;;;;;5088218;22;20089;-62
2022/03/05 10:37:14;;;;;;;2.22;1.20;;;28.70;76.40;;;;;;5128190;23;20020;-64
2022/03/05 10:39:37;;;;;;;2.53;1.40;;;28.60;76.00;;;;;;5134670;23;20563;-65
2022/03/05 10:42:01;;;;;;;3.10;1.50;;;28.60;75.90;;;;;;5132161;23;20023;-65
2022/03/05 10:44:24;;;;;;;3.30;1.40;;;28.60;75.90;;;;;;5117566;23;20095;-62
2022/03/05 10:46:56;;;;;;;2.97;1.40;;;28.50;75.80;;;;;;5125392;23;20066;-62
2022/03/05 10:49:20;;;;;;;3.70;1.60;;;28.50;75.80;;;;;;5123069;23;20046;-65
2022/03/05 10:51:44;;;;;;;;;;;28.50;75.80;;;;;;5126482;23;20440;-66
2022/03/05 10:54:07;;;;;;;1.95;1.23;;;28.50;75.90;;;;;;5130572;23;19989;-61
2022/03/05 10:56:36;;;;;;;1.90;1.10;;;28.40;75.90;;;;;;5125421;23;20491;-65
2022/03/05 10:59:05;;;;;;;2.33;1.33;;;28.40;76.00;;;;;;5129847;23;20394;-66
2022/03/05 11:01:29;;;;;;;2.42;1.38;;;28.40;76.00;;;;;;5127253;23;20091;-63
2022/03/05 11:03:56;;;;;;;2.15;1.35;;;28.40;76.10;;;;;;5131347;23;20763;-64
2022/03/05 11:06:20;;;;;;;3.42;1.30;;;28.40;76.10;;;;;;5116077;23;20107;-64
2022/03/05 11:08:43;;;;;;;2.10;1.40;;;28.40;76.20;;;;;;5126032;23;20024;-63
2022/03/05 11:11:05;;;;;;;3.47;1.50;;;28.40;76.30;;;;;;5130671;23;20035;-65
2022/03/05 11:13:28;;;;;;;6.00;1.30;;;28.30;76.30;;;;;;5125410;23;20023;-61
2022/03/05 11:15:51;;;;;;;2.60;1.48;;;28.30;76.50;;;;;;5124207;23;20103;-61
2022/03/05 11:18:14;;;;;;;1.85;1.27;;;28.30;76.30;;;;;;5119941;23;20102;-61
2022/03/05 11:20:37;;;;;;;2.00;1.10;;;28.30;76.30;;;;;;5122878;23;20077;-59
2022/03/05 11:23:02;;;;;;;1.98;1.30;;;28.30;76.40;;;;;;5121197;23;20015;-59
2022/03/05 11:25:27;;;;;;;3.83;1.10;;;28.30;76.50;;;;;;5129216;23;20478;-63
2022/03/05 11:28:04;;;;;;;2.53;1.05;;;28.30;76.40;;;;;;5113280;23;20356;-63
2022/03/05 11:30:28;;;;;;;0.77;0.68;;;28.30;76.30;;;;;;5126165;23;20035;-65
2022/03/05 11:32:51;;;;;;;2.85;1.40;;;28.30;76.00;;;;;;5124384;23;20020;-65
2022/03/05 11:35:21;;;;;;;2.03;1.02;;;28.30;75.90;;;;;;5129933;23;20016;-65
2022/03/05 11:37:44;;;;;;;2.67;0.98;;;28.20;75.40;;;;;;5119814;23;20128;-65
2022/03/05 11:40:08;;;;;;;1.65;0.80;;;28.20;75.20;;;;;;5114333;23;20050;-66
2022/03/05 11:42:38;;;;;;;2.70;0.90;;;28.20;75.00;;;;;;5127556;23;20448;-68
2022/03/05 11:45:02;;;;;;;0.63;0.60;;;28.20;74.80;;;;;;5123949;23;20012;-63
2022/03/05 11:47:42;;;;;;;0.90;0.77;;;28.20;74.50;;;;;;5128110;23;20047;-63
2022/03/05 11:50:08;;;;;;;1.88;0.80;;;28.20;75.00;;;;;;5126353;23;20043;-63
2022/03/05 11:52:39;;;;;;;2.30;0.60;;;28.10;74.00;;;;;;5112394;23;20043;-65
2022/03/05 11:55:16;;;;;;;1.45;0.55;;;28.10;73.90;;;;;;5126793;23;20187;-63
2022/03/05 11:57:41;;;;;;;3.33;0.70;;;28.10;73.70;;;;;;5124264;23;20578;-67
2022/03/05 12:00:05;;;;;;;2.28;0.55;;;28.10;73.60;;;;;;5129939;23;20004;-65
2022/03/05 12:02:43;;;;;;;0.55;0.52;;;28.10;73.40;;;;;;5113747;23;20020;-70
2022/03/05 12:05:06;;;;;;;2.03;0.60;;;28.00;73.40;;;;;;5125455;23;20023;-70
2022/03/05 12:07:40;;;;;;;3.90;0.95;;;28.00;73.40;;;;;;5112094;23;20020;-68
2022/03/05 12:10:13;;;;;;;3.25;0.98;;;28.00;73.40;;;;;;5126404;23;20024;-71
2022/03/05 12:12:54;;;;;;;0.77;0.60;;;28.00;73.30;;;;;;5126062;23;20030;-66
2022/03/05 12:15:17;;;;;;;0.68;0.50;;;28.00;73.20;;;;;;5123145;23;20304;-71
2022/03/05 12:17:47;;;;;;;3.00;0.73;;;28.00;73.10;;;;;;5089573;22;20066;-67
2022/03/05 12:20:14;;;;;;;1.45;0.73;;;27.90;73.20;;;;;;5147610;22;20413;-69
2022/03/05 12:22:36;;;;;;;2.55;0.90;;;27.90;73.20;;;;;;5156254;22;20023;-71
2022/03/05 12:24:59;;;;;;;3.45;0.75;;;27.90;73.30;;;;;;5153577;22;20095;-68
2022/03/05 12:27:24;;;;;;;2.45;0.93;;;27.90;73.40;;;;;;5151527;22;20178;-70
2022/03/05 12:29:48;;;;;;;2.38;0.85;;;27.90;73.20;;;;;;5156909;22;20057;-68
2022/03/05 12:32:14;;;;;;;2.75;0.80;;;27.80;72.70;;;;;;5153421;22;20070;-66
2022/03/05 12:34:37;;;;;;;1.60;0.93;;;27.80;72.40;;;;;;5154500;22;20011;-64
2022/03/05 12:36:59;;;;;;;2.95;0.75;;;27.70;72.80;;;;;;5155033;22;20019;-65
2022/03/05 12:39:25;;;;;;;1.80;1.10;;;27.70;73.10;;;;;;5153896;22;20011;-66
2022/03/05 12:41:47;;;;;;;1.10;0.75;;;27.70;73.10;;;;;;5160193;22;20015;-71
2022/03/05 12:44:17;;;;;;;1.50;1.02;;;27.70;73.00;;;;;;5156069;22;20019;-66
2022/03/05 12:46:39;;;;;;;2.65;1.00;;;27.60;72.80;;;;;;5151797;22;20016;-67
2022/03/05 12:49:07;;;;;;;2.47;0.73;;;27.70;72.80;;;;;;5159719;22;20012;-67